Time;durP1;ratioP1;P1;durP2;ratioP2;P2;SDS_P1;SDS_P2;PMS_P1;PMS_P2;Temp;Humidity;BMP_temperature;BMP_pressure;BME280_temperature;BME280_humidity;BME280_pressure;Samples;Min_cycle;Max_cycle;Signal;HPM_P1;HPM_P2
2021/05/06 00:02:30;;;;;;;3.70;1.73;;;;;;;;;;4805268;28;20214;-75
2021/05/06 00:05:25;;;;;;;3.60;1.73;;;4.70;77.50;;;;;;4856911;28;20170;-75
2021/05/06 00:32:09;;;;;;;2.80;2.40;;;4.40;71.10;;;;;;4856085;28;20206;-79
2021/05/06 00:34:31;;;;;;;4.50;2.90;;;4.40;1.00;;;;;;4859348;28;20185;-82
2021/05/06 00:36:53;;;;;;;2.30;2.07;;;4.50;99.90;;;;;;4891848;28;20208;-78
2021/05/06 00:39:18;;;;;;;2.13;1.80;;;4.30;99.90;;;;;;4875059;28;20197;-81
2021/05/06 00:41:51;;;;;;;2.63;1.97;;;4.30;99.90;;;;;;4876692;28;20217;-80
2021/05/06 00:44:42;;;;;;;4.17;2.40;;;4.30;1.00;;;;;;4876244;28;20182;-80
2021/05/06 00:55:35;;;;;;;2.60;2.10;;;5.20;99.90;;;;;;4859595;28;20205;-79
2021/05/06 00:58:13;;;;;;;3.33;2.13;;;4.10;1.00;;;;;;4858481;28;20279;-81
2021/05/06 01:01:02;;;;;;;19.13;8.57;;;4.20;1.00;;;;;;4865851;28;20271;-81
2021/05/06 01:03:35;;;;;;;3.63;2.53;;;4.00;1.00;;;;;;4855639;28;20198;-79
2021/05/06 01:06:01;;;;;;;1.60;1.50;;;4.30;1.00;;;;;;4855537;28;20202;-81
2021/05/06 01:08:25;;;;;;;2.13;1.80;;;4.00;1.00;;;;;;4857017;28;20656;-84
2021/05/06 01:13:29;;;;;;;2.40;1.93;;;4.00;1.00;;;;;;4837555;28;20194;-81
2021/05/06 01:15:51;;;;;;;2.57;1.70;;;4.00;1.00;;;;;;4855200;28;20202;-80
2021/05/06 01:18:14;;;;;;;1.80;1.70;;;;;;;;;;4856196;28;20272;-80
2021/05/06 01:20:36;;;;;;;2.10;1.90;;;;;;;;;;4858478;28;20367;-78
2021/05/06 01:22:59;;;;;;;1.50;1.40;;;4.00;1.00;;;;;;4860427;28;20190;-80
2021/05/06 01:25:21;;;;;;;2.03;1.50;;;3.80;99.90;;;;;;4842351;28;20621;-77
2021/05/06 01:27:52;;;;;;;3.90;1.67;;;4.00;99.90;;;;;;4860174;28;20640;-80
2021/05/06 01:30:25;;;;;;;3.17;2.00;;;3.90;1.00;;;;;;4860193;28;20236;-79
2021/05/06 01:32:51;;;;;;;2.93;1.63;;;;;;;;;;4858779;28;20268;-78
2021/05/06 01:35:17;;;;;;;2.13;1.60;;;3.90;99.90;;;;;;4862786;28;20513;-78
2021/05/06 01:37:48;;;;;;;2.70;1.50;;;;;;;;;;4860006;28;20682;-77
2021/05/06 01:42:58;;;;;;;1.50;1.40;;;3.70;99.90;;;;;;4857161;28;20202;-81
2021/05/06 01:48:09;;;;;;;1.87;1.67;;;3.70;1.00;;;;;;4859707;28;20246;-79
2021/05/06 01:59:01;;;;;;;2.17;1.70;;;3.40;92.10;;;;;;4838365;28;20664;-83
2021/05/06 02:01:23;;;;;;;2.37;2.13;;;3.40;1.00;;;;;;4851106;28;20280;-80
2021/05/06 02:03:47;;;;;;;2.27;2.07;;;;;;;;;;4858203;28;20202;-78
2021/05/06 02:06:09;;;;;;;3.80;1.90;;;3.70;1.00;;;;;;4858180;28;20201;-81
2021/05/06 02:08:31;;;;;;;2.17;1.97;;;3.60;99.90;;;;;;4841404;28;20198;-79
2021/05/06 02:11:01;;;;;;;1.57;1.47;;;3.30;1.00;;;;;;4859813;28;20182;-88
2021/05/06 02:13:55;;;;;;;2.67;1.90;;;3.40;1.00;;;;;;4858379;28;20237;-82
2021/05/06 02:16:21;;;;;;;1.73;1.50;;;3.30;1.00;;;;;;4863527;28;20562;-81
2021/05/06 02:18:44;;;;;;;2.73;2.00;;;;;;;;;;4877912;28;20553;-78
2021/05/06 02:21:08;;;;;;;2.77;1.87;;;3.50;90.90;;;;;;4877228;28;20594;-82
2021/05/06 02:23:32;;;;;;;2.60;1.97;;;;;;;;;;4878110;28;20244;-81
2021/05/06 02:25:54;;;;;;;2.17;1.90;;;3.10;99.90;;;;;;4878648;28;20572;-83
2021/05/06 02:28:16;;;;;;;1.93;1.80;;;3.30;99.90;;;;;;4877199;28;20193;-79
2021/05/06 02:30:40;;;;;;;2.40;1.93;;;3.50;1.00;;;;;;4876794;28;20220;-77
2021/05/06 02:33:05;;;;;;;1.70;1.60;;;;;;;;;;4878255;28;20189;-81
2021/05/06 02:35:27;;;;;;;2.43;2.00;;;3.40;1.00;;;;;;4876317;28;20209;-81
2021/05/06 02:37:50;;;;;;;2.67;1.70;;;;;;;;;;4859435;28;20197;-80
2021/05/06 02:40:13;;;;;;;1.83;1.67;;;3.30;1.00;;;;;;4878366;28;20239;-76
2021/05/06 02:42:35;;;;;;;1.83;1.63;;;;;;;;;;4876725;28;20247;-82
2021/05/06 02:44:57;;;;;;;2.20;1.80;;;3.20;99.90;;;;;;4876328;28;20235;-80
2021/05/06 02:47:20;;;;;;;1.60;1.50;;;3.20;1.00;;;;;;4876596;28;20671;-82
2021/05/06 02:49:45;;;;;;;2.10;1.90;;;3.30;44.50;;;;;;4877874;28;20212;-78
2021/05/06 02:52:10;;;;;;;1.90;1.70;;;3.40;99.70;;;;;;4876218;28;20201;-78
2021/05/06 02:54:37;;;;;;;3.10;1.70;;;3.20;89.80;;;;;;4877616;28;20233;-82
2021/05/06 02:57:05;;;;;;;2.20;1.50;;;;;;;;;;4876687;28;20206;-78
2021/05/06 03:02:43;;;;;;;1.73;1.63;;;3.30;1.00;;;;;;4875696;28;20239;-82
2021/05/06 03:02:45;;;;;;;2.93;2.10;;;3.30;1.00;;;;;;4875828;28;20204;-83
2021/05/06 03:05:08;;;;;;;2.50;2.30;;;3.20;1.00;;;;;;4842877;28;20672;-83
2021/05/06 03:07:32;;;;;;;3.03;2.83;;;3.20;1.00;;;;;;4877425;28;20573;-77
2021/05/06 03:10:01;;;;;;;2.53;2.33;;;;;;;;;;4876050;28;20205;-78
2021/05/06 03:12:35;;;;;;;3.37;2.90;;;3.30;1.00;;;;;;4877614;28;20197;-81
2021/05/06 03:15:10;;;;;;;4.00;2.87;;;3.30;1.00;;;;;;4859294;28;20212;-81
2021/05/06 03:22:56;;;;;;;3.43;2.63;;;3.20;99.90;;;;;;4877382;28;20231;-75
2021/05/06 03:25:19;;;;;;;2.83;2.53;;;3.20;99.90;;;;;;4876154;28;20588;-80
2021/05/06 03:27:47;;;;;;;2.93;2.43;;;;;;;;;;4875474;28;20311;-82
2021/05/06 03:30:25;;;;;;;2.83;2.57;;;3.20;99.90;;;;;;4875578;28;20227;-79
2021/05/06 03:32:58;;;;;;;2.93;2.63;;;3.10;1.00;;;;;;4877278;28;20169;-80
2021/05/06 03:35:38;;;;;;;3.03;2.53;;;3.10;51.80;;;;;;4874124;28;20267;-79
2021/05/06 03:43:47;;;;;;;3.17;2.57;;;3.30;1.00;;;;;;4836688;28;20187;-80
2021/05/06 03:49:26;;;;;;;2.33;2.10;;;3.40;99.90;;;;;;4850599;28;20342;-85
2021/05/06 04:18:38;;;;;;;2.50;2.30;;;4.00;1.00;;;;;;4838181;28;20264;-85
2021/05/06 04:26:27;;;;;;;2.10;1.80;;;4.00;99.90;;;;;;4857296;28;20174;-80
2021/05/06 04:36:59;;;;;;;1.90;1.80;;;4.30;1.00;;;;;;4839220;28;20194;-82
2021/05/06 04:39:29;;;;;;;1.80;1.70;;;4.40;99.90;;;;;;4851416;28;20198;-86
2021/05/06 04:41:56;;;;;;;1.87;1.70;;;4.50;99.90;;;;;;4875217;28;20217;-85
2021/05/06 04:45:07;;;;;;;2.00;1.90;;;;;;;;;;4858713;28;20198;-83
2021/05/06 04:50:21;;;;;;;3.20;1.63;;;;;;;;;;4876636;28;20795;-76
2021/05/06 04:55:28;;;;;;;1.90;1.80;;;4.80;1.00;;;;;;4879926;28;20231;-79
2021/05/06 04:58:11;;;;;;;2.17;1.87;;;;;;;;;;4861292;28;20214;-84
2021/05/06 05:03:31;;;;;;;1.87;1.30;;;4.90;99.90;;;;;;4880062;28;20255;-82
2021/05/06 05:05:54;;;;;;;1.33;1.30;;;;;;;;;;4878677;28;20727;-80
2021/05/06 05:08:18;;;;;;;1.50;1.37;;;4.70;1.00;;;;;;4880090;28;20716;-81
2021/05/06 05:10:48;;;;;;;2.80;1.83;;;;;;;;;;4879794;28;20193;-82
2021/05/06 05:18:53;;;;;;;1.90;1.47;;;5.70;40.40;;;;;;4845411;28;20243;-77
2021/05/06 05:21:20;;;;;;;1.77;1.40;;;6.40;48.90;;;;;;4879696;28;20188;-81
2021/05/06 05:23:46;;;;;;;1.40;1.30;;;5.60;1.00;;;;;;4879800;28;20528;-80
2021/05/06 05:26:09;;;;;;;1.50;1.40;;;6.50;1.00;;;;;;4877638;28;20263;-84
2021/05/06 05:28:32;;;;;;;1.43;1.33;;;;;;;;;;4877610;28;20255;-78
2021/05/06 05:30:54;;;;;;;2.27;1.50;;;6.00;99.90;;;;;;4879601;28;20181;-80
2021/05/06 05:33:18;;;;;;;1.73;1.43;;;6.00;1.00;;;;;;4879236;28;20189;-80
2021/05/06 05:35:43;;;;;;;1.50;1.40;;;;;;;;;;4867676;28;20205;-80
2021/05/06 05:38:14;;;;;;;1.67;1.47;;;6.40;1.00;;;;;;4873688;28;20213;-83
2021/05/06 05:40:42;;;;;;;1.30;1.20;;;6.30;99.90;;;;;;4859787;28;20224;-77
2021/05/06 05:43:12;;;;;;;1.47;1.37;;;6.60;99.90;;;;;;4865954;28;20260;-76
2021/05/06 05:56:26;;;;;;;1.50;1.40;;;6.80;1.00;;;;;;4858088;28;20255;-81
2021/05/06 05:58:50;;;;;;;1.10;1.10;;;7.10;99.90;;;;;;4858454;28;20206;-82
2021/05/06 06:01:12;;;;;;;1.23;1.03;;;7.20;99.90;;;;;;4857844;28;20244;-82
2021/05/06 06:03:33;;;;;;;1.40;1.30;;;7.40;99.90;;;;;;4859224;28;20182;-78
2021/05/06 06:05:56;;;;;;;1.17;1.07;;;;;;;;;;4859456;28;20247;-81
2021/05/06 06:08:21;;;;;;;1.97;1.30;;;7.10;99.90;;;;;;4859614;28;20248;-79
2021/05/06 06:10:43;;;;;;;1.73;1.27;;;7.50;99.90;;;;;;4841257;28;20562;-86
2021/05/06 06:13:06;;;;;;;1.23;1.13;;;7.70;55.20;;;;;;4858114;28;20193;-79
2021/05/06 06:15:44;;;;;;;2.20;1.40;;;7.40;99.90;;;;;;4857853;28;20232;-79
2021/05/06 06:18:12;;;;;;;0.90;0.90;;;7.50;99.90;;;;;;4860780;28;20568;-84
2021/05/06 06:20:37;;;;;;;1.00;1.00;;;;;;;;;;4865826;28;20597;-77
2021/05/06 06:22:58;;;;;;;1.20;1.10;;;7.60;99.90;;;;;;4859200;28;20214;-78
2021/05/06 06:25:21;;;;;;;0.90;0.90;;;;;;;;;;4857819;28;20248;-77
2021/05/06 06:27:44;;;;;;;1.93;1.17;;;;;;;;;;4857822;28;20722;-83
2021/05/06 06:30:12;;;;;;;1.27;1.17;;;7.90;99.90;;;;;;4859190;28;20190;-79
2021/05/06 06:32:34;;;;;;;1.30;1.20;;;8.10;99.90;;;;;;4876425;28;20312;-78
2021/05/06 06:34:57;;;;;;;1.10;1.00;;;;;;;;;;4876425;28;20198;-79
2021/05/06 06:37:19;;;;;;;1.10;1.00;;;7.90;99.90;;;;;;4869093;28;20202;-80
2021/05/06 06:39:42;;;;;;;1.20;1.10;;;7.60;1.00;;;;;;4859050;28;20721;-75
2021/05/06 06:42:05;;;;;;;1.67;1.10;;;7.50;99.90;;;;;;4857565;28;20264;-75
2021/05/06 06:44:28;;;;;;;1.40;1.30;;;7.90;99.90;;;;;;4858596;28;20194;-81
2021/05/06 06:47:01;;;;;;;0.90;0.90;;;8.10;1.00;;;;;;4858903;28;20186;-79
2021/05/06 06:49:23;;;;;;;1.23;1.17;;;8.00;1.00;;;;;;4857287;28;20201;-77
2021/05/06 06:51:45;;;;;;;1.03;0.93;;;8.00;99.90;;;;;;4858754;28;20252;-76
2021/05/06 06:54:07;;;;;;;1.67;1.47;;;;;;;;;;4858603;28;20226;-76
2021/05/06 06:56:29;;;;;;;1.60;1.50;;;8.20;91.30;;;;;;4858346;28;20178;-76
2021/05/06 06:58:53;;;;;;;1.10;1.10;;;8.90;1.00;;;;;;4857309;28;20202;-83
2021/05/06 07:01:15;;;;;;;1.23;1.10;;;8.10;52.10;;;;;;4863656;28;20193;-79
2021/05/06 07:03:38;;;;;;;3.17;1.23;;;8.70;1.00;;;;;;4869961;28;20255;-80
2021/05/06 07:06:00;;;;;;;1.00;1.00;;;;;;;;;;4862499;28;20659;-77
2021/05/06 07:08:25;;;;;;;1.03;1.03;;;8.80;1.00;;;;;;4875718;28;20189;-77
2021/05/06 07:10:50;;;;;;;1.20;1.07;;;9.20;1.00;;;;;;4859269;28;20733;-75
2021/05/06 07:13:16;;;;;;;0.97;0.97;;;9.30;1.00;;;;;;4870994;28;20215;-76
2021/05/06 07:15:38;;;;;;;0.90;0.90;;;9.80;1.00;;;;;;4842689;28;20298;-76
2021/05/06 07:18:01;;;;;;;1.20;1.10;;;;;;;;;;4855316;28;20610;-74
2021/05/06 07:20:24;;;;;;;0.90;0.90;;;10.70;1.00;;;;;;4855439;28;20194;-79
2021/05/06 07:22:46;;;;;;;1.00;1.00;;;10.90;1.00;;;;;;4855399;28;20638;-78
2021/05/06 07:25:12;;;;;;;1.03;1.00;;;11.20;99.90;;;;;;4856785;28;20178;-77
2021/05/06 07:27:34;;;;;;;1.33;0.93;;;11.40;1.00;;;;;;4855060;28;20194;-79
2021/05/06 07:29:56;;;;;;;1.17;1.10;;;;;;;;;;4856490;28;20186;-75
2021/05/06 07:32:18;;;;;;;1.20;1.10;;;10.90;1.00;;;;;;4856951;28;20542;-73
2021/05/06 07:34:40;;;;;;;1.00;1.00;;;;;;;;;;4856512;28;20186;-76
2021/05/06 07:37:03;;;;;;;1.07;1.03;;;12.00;1.00;;;;;;4856813;28;20178;-82
2021/05/06 07:39:25;;;;;;;1.53;1.43;;;;;;;;;;4856889;28;20186;-77
2021/05/06 07:41:48;;;;;;;1.20;1.10;;;;;;;;;;4866391;28;20254;-77
2021/05/06 07:44:10;;;;;;;0.90;0.90;;;12.20;1.00;;;;;;4856695;28;20182;-80
2021/05/06 07:46:32;;;;;;;1.43;1.33;;;11.40;1.00;;;;;;4856550;28;20187;-75
2021/05/06 07:48:55;;;;;;;1.43;1.33;;;11.70;99.90;;;;;;4860341;28;20194;-78
2021/05/06 07:51:17;;;;;;;1.10;1.10;;;12.10;1.00;;;;;;4855589;28;20268;-77
2021/05/06 07:53:43;;;;;;;1.30;1.20;;;11.60;1.00;;;;;;4856415;28;20252;-77
2021/05/06 07:56:05;;;;;;;0.97;0.97;;;11.40;1.00;;;;;;4865851;28;20259;-78
2021/05/06 07:58:27;;;;;;;1.37;1.27;;;;;;;;;;4846481;28;20218;-79
2021/05/06 08:00:50;;;;;;;1.20;1.10;;;;;;;;;;4871070;28;20255;-75
2021/05/06 08:03:12;;;;;;;1.23;1.13;;;12.00;99.90;;;;;;4875265;28;20209;-76
2021/05/06 08:05:35;;;;;;;2.17;1.90;;;12.90;1.00;;;;;;4873556;28;20209;-77
2021/05/06 08:07:57;;;;;;;0.90;0.90;;;12.50;1.00;;;;;;4875844;28;20603;-75
2021/05/06 08:10:23;;;;;;;1.43;1.10;;;12.50;99.90;;;;;;4875863;28;20704;-81
2021/05/06 08:12:45;;;;;;;1.97;1.37;;;12.50;99.90;;;;;;4873963;28;20201;-80
2021/05/06 08:15:08;;;;;;;1.27;1.10;;;12.80;1.00;;;;;;4873973;28;20209;-79
2021/05/06 08:17:30;;;;;;;2.50;1.77;;;12.50;1.00;;;;;;4875474;28;20239;-77
2021/05/06 08:19:53;;;;;;;1.10;1.00;;;;;;;;;;4875708;28;20190;-73
2021/05/06 08:22:15;;;;;;;1.17;1.07;;;12.70;99.90;;;;;;4875446;28;20209;-73
2021/05/06 08:24:38;;;;;;;1.97;1.60;;;;;;;;;;4875309;28;20752;-77
2021/05/06 08:27:00;;;;;;;1.30;1.20;;;12.80;1.00;;;;;;4876236;28;20208;-74
2021/05/06 08:29:23;;;;;;;0.90;0.90;;;12.90;1.00;;;;;;4877532;28;20231;-84
2021/05/06 08:31:45;;;;;;;1.30;1.17;;;;;;;;;;4879029;28;20247;-75
2021/05/06 08:34:07;;;;;;;1.57;1.20;;;12.80;1.00;;;;;;4879556;28;20235;-79
2021/05/06 08:36:29;;;;;;;3.07;1.70;;;13.00;1.00;;;;;;4860893;28;20530;-78
2021/05/06 08:38:51;;;;;;;1.67;1.20;;;12.80;1.00;;;;;;4879355;28;20714;-80
2021/05/06 08:41:14;;;;;;;1.87;1.30;;;13.40;1.00;;;;;;4879300;28;20190;-75
2021/05/06 08:43:39;;;;;;;4.30;1.77;;;13.10;1.00;;;;;;4878741;28;20582;-77
2021/05/06 08:46:02;;;;;;;1.63;0.90;;;;;;;;;;4878016;28;20659;-77
2021/05/06 08:48:24;;;;;;;3.77;1.27;;;14.10;1.00;;;;;;4894621;28;20185;-79
2021/05/06 08:50:46;;;;;;;6.33;1.43;;;14.10;99.90;;;;;;4860792;28;20186;-78
2021/05/06 08:53:10;;;;;;;8.47;1.93;;;14.10;99.90;;;;;;4876609;28;20209;-78
2021/05/06 08:55:33;;;;;;;17.83;2.97;;;;;;;;;;4877522;28;20534;-75
2021/05/06 08:57:56;;;;;;;10.73;1.77;;;;;;;;;;4859841;28;20577;-81
2021/05/06 09:00:22;;;;;;;9.10;1.57;;;14.40;99.90;;;;;;4878813;28;20189;-76
2021/05/06 09:02:47;;;;;;;8.80;1.47;;;14.80;99.90;;;;;;4876606;28;20262;-80
2021/05/06 09:05:10;;;;;;;10.57;1.67;;;15.40;99.90;;;;;;4876958;28;20610;-75
2021/05/06 09:07:33;;;;;;;13.80;2.03;;;;;;;;;;4876950;28;20676;-75
2021/05/06 09:09:55;;;;;;;10.63;1.70;;;;;;;;;;4878590;28;20707;-76
2021/05/06 09:12:17;;;;;;;6.90;1.20;;;;;;;;;;4876690;28;20201;-76
2021/05/06 09:14:42;;;;;;;15.50;2.27;;;17.60;99.90;;;;;;4878613;28;20662;-80
2021/05/06 09:17:06;;;;;;;7.10;1.27;;;18.20;99.90;;;;;;4877128;28;20189;-82
2021/05/06 09:19:29;;;;;;;21.57;3.33;;;;;;;;;;4876577;28;20756;-75
2021/05/06 09:21:51;;;;;;;12.63;2.07;;;;;;;;;;4878055;28;20196;-74
2021/05/06 09:24:19;;;;;;;6.00;1.10;;;17.80;99.90;;;;;;4893213;28;20640;-78
2021/05/06 09:26:42;;;;;;;6.93;1.13;;;17.40;99.90;;;;;;4876851;28;20284;-75
2021/05/06 09:29:06;;;;;;;6.93;1.17;;;17.20;99.90;;;;;;4878591;28;20801;-80
2021/05/06 09:31:28;;;;;;;14.97;2.33;;;;;;;;;;4859900;28;20659;-75
2021/05/06 09:33:52;;;;;;;11.63;1.90;;;18.30;99.90;;;;;;4878192;28;20189;-80
2021/05/06 09:36:16;;;;;;;8.00;1.43;;;18.30;99.90;;;;;;4857725;28;20244;-74
2021/05/06 09:38:41;;;;;;;11.57;2.03;;;17.70;99.90;;;;;;4867816;28;20218;-79
2021/05/06 09:41:06;;;;;;;5.77;1.10;;;17.80;99.90;;;;;;4858835;28;20183;-77
2021/05/06 09:43:30;;;;;;;15.67;2.33;;;17.30;99.90;;;;;;4857194;28;20260;-76
2021/05/06 09:45:53;;;;;;;8.07;1.37;;;18.20;1.00;;;;;;4858638;28;20182;-77
2021/05/06 09:48:16;;;;;;;8.70;1.50;;;;;;;;;;4857330;28;20224;-78
2021/05/06 09:50:42;;;;;;;13.00;2.20;;;18.40;99.90;;;;;;4859765;28;20582;-74
2021/05/06 09:53:12;;;;;;;7.60;1.43;;;18.00;99.90;;;;;;4864229;28;20209;-80
2021/05/06 09:55:34;;;;;;;14.20;2.23;;;;;;;;;;4840567;28;20198;-79
2021/05/06 09:58:11;;;;;;;15.10;2.40;;;16.50;99.90;;;;;;4861057;28;20241;-77
2021/05/06 10:00:36;;;;;;;75.90;11.07;;;16.40;1.00;;;;;;4856464;28;20186;-80
2021/05/06 10:03:10;;;;;;;12.30;2.13;;;16.00;99.90;;;;;;4858347;28;20210;-75
2021/05/06 10:05:36;;;;;;;12.37;2.13;;;15.80;99.90;;;;;;4858480;28;20525;-78
2021/05/06 10:07:59;;;;;;;8.40;1.60;;;15.70;99.90;;;;;;4857264;28;20252;-75
2021/05/06 10:10:24;;;;;;;4.50;1.00;;;15.80;99.90;;;;;;4858664;28;20240;-76
2021/05/06 10:12:46;;;;;;;6.97;1.33;;;;;;;;;;4873165;28;20606;-82
2021/05/06 10:15:13;;;;;;;6.43;1.30;;;17.40;99.90;;;;;;4858392;28;20186;-74
2021/05/06 10:17:37;;;;;;;10.00;1.93;;;;;;;;;;4858293;28;20781;-81
2021/05/06 10:20:00;;;;;;;5.00;1.00;;;17.30;99.90;;;;;;4840248;28;20214;-76
2021/05/06 10:22:23;;;;;;;5.37;1.10;;;16.20;99.90;;;;;;4857077;28;20205;-80
2021/05/06 10:24:48;;;;;;;6.87;1.43;;;15.60;99.90;;;;;;4857095;28;20210;-80
2021/05/06 10:27:11;;;;;;;7.40;1.43;;;15.10;99.90;;;;;;4840040;28;20237;-76
2021/05/06 10:29:34;;;;;;;7.80;1.57;;;14.50;1.00;;;;;;4858275;28;20236;-77
2021/05/06 10:31:56;;;;;;;6.13;1.20;;;;;;;;;;4856645;28;20656;-74
2021/05/06 10:34:18;;;;;;;6.33;1.27;;;;;;;;;;4862475;28;20254;-76
2021/05/06 10:36:41;;;;;;;12.27;2.20;;;13.60;99.90;;;;;;4875695;28;20189;-74
2021/05/06 10:39:11;;;;;;;2.57;0.70;;;13.30;99.90;;;;;;4877194;28;20636;-75
2021/05/06 10:41:35;;;;;;;12.37;2.40;;;13.10;99.90;;;;;;4874778;28;20190;-80
2021/05/06 10:43:58;;;;;;;5.83;1.47;;;12.50;99.90;;;;;;4877075;28;20266;-76
2021/05/06 10:46:20;;;;;;;5.87;1.37;;;;;;;;;;4891921;28;20201;-80
2021/05/06 10:49:01;;;;;;;9.77;1.90;;;12.80;90.10;;;;;;4874874;28;20267;-73
2021/05/06 10:51:48;;;;;;;4.90;1.30;;;12.50;99.90;;;;;;4891838;28;20208;-75
2021/05/06 10:54:30;;;;;;;4.70;1.27;;;12.70;89.50;;;;;;4876601;28;20284;-73
2021/05/06 10:56:53;;;;;;;6.53;1.50;;;12.40;65.00;;;;;;4891778;28;20267;-79
2021/05/06 10:59:26;;;;;;;4.93;1.30;;;12.20;99.90;;;;;;4891298;28;20200;-74
2021/05/06 11:01:48;;;;;;;6.30;1.40;;;;;;;;;;4873033;28;20200;-80
2021/05/06 11:04:11;;;;;;;4.30;1.10;;;13.00;99.90;;;;;;4876222;28;20217;-78
2021/05/06 11:06:35;;;;;;;13.53;2.67;;;13.50;99.90;;;;;;4861862;28;20190;-77
2021/05/06 11:08:58;;;;;;;6.20;1.50;;;;;;;;;;4861708;28;20236;-80
2021/05/06 11:11:20;;;;;;;4.43;1.03;;;;;;;;;;4857815;28;20672;-77
2021/05/06 11:14:03;;;;;;;10.27;2.10;;;16.90;1.00;;;;;;4872486;28;20197;-81
2021/05/06 11:16:25;;;;;;;2.53;0.70;;;;;;;;;;4856693;28;20619;-77
2021/05/06 11:18:51;;;;;;;4.87;1.03;;;18.60;99.90;;;;;;4873099;28;20663;-78
2021/05/06 11:21:36;;;;;;;5.50;1.27;;;18.30;1.00;;;;;;4886500;28;20742;-88
2021/05/06 11:24:13;;;;;;;4.77;1.00;;;18.70;99.90;;;;;;4875136;28;20267;-79
2021/05/06 11:26:35;;;;;;;9.63;1.83;;;18.80;99.90;;;;;;4876135;28;20639;-78
2021/05/06 11:28:58;;;;;;;5.63;1.20;;;;;;;;;;4875051;28;20186;-84
2021/05/06 11:31:47;;;;;;;6.07;1.20;;;19.10;1.00;;;;;;4868606;28;20185;-76
2021/05/06 11:34:45;;;;;;;4.70;1.00;;;19.10;99.90;;;;;;4856700;28;20190;-74
2021/05/06 11:37:16;;;;;;;3.77;0.93;;;18.80;99.90;;;;;;4837048;28;20252;-74
2021/05/06 11:39:52;;;;;;;10.27;2.03;;;18.30;99.90;;;;;;4855366;28;20202;-79
2021/05/06 11:42:14;;;;;;;4.17;0.90;;;;;;;;;;4857032;28;20178;-79
2021/05/06 11:44:36;;;;;;;9.17;1.77;;;17.00;1.00;;;;;;4838697;28;20222;-80
2021/05/06 11:46:59;;;;;;;4.37;1.03;;;16.30;99.90;;;;;;4855094;28;20270;-79
2021/05/06 11:49:27;;;;;;;4.43;1.00;;;16.00;99.90;;;;;;4855438;28;20198;-84
2021/05/06 11:51:50;;;;;;;6.53;1.33;;;;;;;;;;4857134;28;20189;-85
2021/05/06 11:54:15;;;;;;;5.03;1.07;;;16.50;99.90;;;;;;4855397;28;20218;-83
2021/05/06 11:56:38;;;;;;;8.60;1.73;;;16.50;99.90;;;;;;4854891;28;20256;-76
2021/05/06 11:59:02;;;;;;;10.47;2.17;;;;;;;;;;4869459;28;20232;-78
2021/05/06 12:01:25;;;;;;;4.67;1.10;;;17.10;99.90;;;;;;4870150;28;20629;-77
2021/05/06 12:03:48;;;;;;;3.27;0.87;;;17.40;99.90;;;;;;4856267;28;20241;-75
2021/05/06 12:06:10;;;;;;;3.83;0.87;;;;;;;;;;4871967;28;20231;-74
2021/05/06 12:08:42;;;;;;;13.13;2.40;;;17.70;99.90;;;;;;4854722;28;20271;-81
2021/05/06 12:11:05;;;;;;;3.77;0.80;;;17.90;99.90;;;;;;4856729;28;20182;-81
2021/05/06 12:13:32;;;;;;;9.10;1.73;;;17.80;99.90;;;;;;4856128;28;20247;-79
2021/05/06 12:16:10;;;;;;;5.93;1.30;;;18.60;99.90;;;;;;4856839;28;20193;-78
2021/05/06 12:18:32;;;;;;;12.30;2.13;;;19.60;99.90;;;;;;4856398;28;20177;-83
2021/05/06 12:20:58;;;;;;;4.90;0.97;;;19.70;99.90;;;;;;4856759;28;20195;-81
2021/05/06 12:23:21;;;;;;;5.47;1.10;;;19.70;99.90;;;;;;4856991;28;20251;-78
2021/05/06 12:25:43;;;;;;;6.17;1.17;;;;;;;;;;4856888;28;20182;-72
2021/05/06 12:28:05;;;;;;;8.60;1.67;;;;;;;;;;4856549;28;20187;-77
2021/05/06 12:30:28;;;;;;;11.07;1.90;;;;;;;;;;4868746;28;20215;-80
2021/05/06 12:32:50;;;;;;;20.10;3.53;;;;;;;;;;4865133;28;20191;-76
2021/05/06 12:35:12;;;;;;;6.07;1.17;;;;;;;;;;4854138;28;20225;-78
2021/05/06 12:37:37;;;;;;;11.40;2.00;;;18.00;99.90;;;;;;4856428;28;20182;-77
2021/05/06 12:40:00;;;;;;;5.47;1.17;;;;;;;;;;4839094;28;20257;-83
2021/05/06 12:42:27;;;;;;;5.57;1.17;;;16.50;99.90;;;;;;4855370;28;20761;-83
2021/05/06 12:44:50;;;;;;;7.27;1.40;;;;;;;;;;4855180;28;20319;-83
2021/05/06 12:47:24;;;;;;;9.10;1.63;;;15.90;99.90;;;;;;4854566;28;20240;-76
2021/05/06 12:49:48;;;;;;;4.07;0.87;;;15.70;99.90;;;;;;4856456;28;20180;-74
2021/05/06 12:52:28;;;;;;;5.50;1.20;;;15.60;99.90;;;;;;4854552;28;20206;-77
2021/05/06 12:54:51;;;;;;;5.57;1.30;;;15.90;1.00;;;;;;4854453;28;20230;-75
2021/05/06 12:57:17;;;;;;;4.77;1.00;;;15.70;99.90;;;;;;4854479;28;20781;-77
2021/05/06 12:59:40;;;;;;;8.77;1.80;;;;;;;;;;4855432;28;20648;-81
2021/05/06 13:02:08;;;;;;;5.93;1.27;;;15.80;99.90;;;;;;4854329;28;20252;-77
2021/05/06 13:04:42;;;;;;;12.53;2.30;;;15.60;99.90;;;;;;4855569;28;20221;-80
2021/05/06 13:07:05;;;;;;;3.17;0.83;;;;;;;;;;4854757;28;20198;-79
2021/05/06 13:09:27;;;;;;;4.33;1.13;;;;;;;;;;4855885;28;20178;-77
2021/05/06 13:11:50;;;;;;;6.73;1.23;;;17.20;99.90;;;;;;4855902;28;20652;-78
2021/05/06 13:14:12;;;;;;;4.33;0.90;;;18.20;1.00;;;;;;4857059;28;20185;-77
2021/05/06 13:16:40;;;;;;;8.37;1.53;;;18.80;1.00;;;;;;4857725;28;20206;-75
2021/05/06 13:19:05;;;;;;;4.30;0.90;;;20.10;99.90;;;;;;4857808;28;20190;-74
2021/05/06 13:21:28;;;;;;;10.40;1.77;;;;;;;;;;4859125;28;20636;-75
2021/05/06 13:23:53;;;;;;;5.47;1.03;;;22.90;99.90;;;;;;4857291;28;20223;-82
2021/05/06 13:26:30;;;;;;;7.17;1.27;;;22.50;1.00;;;;;;4858921;28;20643;-75
2021/05/06 13:28:59;;;;;;;6.27;1.17;;;23.70;99.90;;;;;;4857686;28;20205;-78
2021/05/06 13:31:22;;;;;;;6.73;1.23;;;23.80;1.00;;;;;;4857592;28;20210;-77
2021/05/06 13:33:46;;;;;;;12.87;2.10;;;;;;;;;;4857084;28;20582;-78
2021/05/06 13:36:10;;;;;;;5.00;0.97;;;21.80;1.00;;;;;;4859144;28;20235;-76
2021/05/06 13:38:51;;;;;;;14.70;2.33;;;20.60;1.00;;;;;;4853106;28;20228;-77
2021/05/06 13:41:14;;;;;;;7.83;1.33;;;;;;;;;;4857016;28;20763;-81
2021/05/06 13:43:36;;;;;;;16.13;2.63;;;18.10;1.00;;;;;;4857955;28;20215;-84
2021/05/06 13:45:59;;;;;;;7.73;1.40;;;17.80;99.90;;;;;;4858126;28;20182;-73
2021/05/06 13:48:21;;;;;;;8.50;1.53;;;;;;;;;;4857859;28;20191;-74
2021/05/06 13:50:43;;;;;;;19.13;3.27;;;17.00;1.00;;;;;;4856246;28;20225;-76
2021/05/06 13:53:07;;;;;;;8.37;1.67;;;;;;;;;;4857456;28;20194;-73
2021/05/06 13:55:29;;;;;;;12.83;2.23;;;;;;;;;;4857676;28;20631;-75
2021/05/06 13:57:51;;;;;;;8.77;1.73;;;;;;;;;;4856699;28;20237;-74
2021/05/06 14:00:15;;;;;;;7.43;1.50;;;18.60;1.00;;;;;;4872458;28;20189;-76
2021/05/06 14:02:38;;;;;;;15.30;2.67;;;19.10;1.00;;;;;;4873312;28;20197;-76
2021/05/06 14:05:00;;;;;;;5.03;1.03;;;;;;;;;;4858788;28;20259;-74
2021/05/06 14:07:22;;;;;;;6.07;1.13;;;;;;;;;;4876146;28;20640;-74
2021/05/06 14:09:45;;;;;;;3.57;0.80;;;;;;;;;;4876108;28;20209;-79
2021/05/06 14:12:07;;;;;;;3.00;0.73;;;19.40;1.00;;;;;;4875819;28;20193;-78
2021/05/06 14:14:30;;;;;;;8.30;1.53;;;;;;;;;;4877567;28;20235;-75
2021/05/06 14:16:52;;;;;;;6.70;1.30;;;;;;;;;;4875667;28;20259;-81
2021/05/06 14:19:15;;;;;;;6.40;1.27;;;18.60;99.90;;;;;;4875876;28;20319;-84
2021/05/06 14:21:38;;;;;;;9.67;1.73;;;;;;;;;;4876525;28;20220;-80
2021/05/06 14:24:01;;;;;;;6.60;1.27;;;;;;;;;;4875889;28;20243;-74
2021/05/06 14:26:23;;;;;;;5.00;1.10;;;;;;;;;;4876460;28;20182;-76
2021/05/06 14:28:46;;;;;;;10.23;1.93;;;;;;;;;;4875093;28;20201;-73
2021/05/06 14:31:09;;;;;;;4.97;1.13;;;;;;;;;;4858188;28;20612;-75
2021/05/06 14:33:31;;;;;;;12.57;2.30;;;;;;;;;;4857484;28;20186;-81
2021/05/06 14:35:54;;;;;;;4.90;1.03;;;16.40;99.90;;;;;;4856588;28;20256;-81
2021/05/06 14:38:17;;;;;;;7.47;1.40;;;;;;;;;;4856347;28;20729;-81
2021/05/06 14:40:40;;;;;;;9.03;1.73;;;16.20;99.90;;;;;;4855667;28;20209;-74
2021/05/06 14:43:02;;;;;;;7.17;1.47;;;;;;;;;;4856416;28;20639;-76
2021/05/06 14:45:24;;;;;;;4.97;1.03;;;;;;;;;;4855870;28;20245;-81
2021/05/06 14:47:46;;;;;;;5.13;1.10;;;;;;;;;;4855567;28;20569;-77
2021/05/06 14:50:11;;;;;;;4.37;1.03;;;15.60;10.10;;;;;;4855986;28;20206;-76
2021/05/06 14:52:34;;;;;;;8.30;1.63;;;15.70;99.90;;;;;;4856947;28;20632;-76
2021/05/06 14:54:56;;;;;;;6.13;1.37;;;;;;;;;;4855877;28;20221;-74
2021/05/06 14:57:18;;;;;;;6.20;1.33;;;;;;;;;;4857703;28;20899;-79
2021/05/06 14:59:41;;;;;;;9.77;1.87;;;;;;;;;;4857410;28;20582;-75
2021/05/06 15:02:03;;;;;;;6.33;1.40;;;;;;;;;;4854722;28;20202;-78
2021/05/06 15:04:25;;;;;;;2.87;0.87;;;;;;;;;;4855623;28;20263;-75
2021/05/06 15:06:48;;;;;;;8.93;1.70;;;;;;;;;;4857699;28;20272;-76
2021/05/06 15:09:11;;;;;;;5.13;1.20;;;15.00;1.00;;;;;;4839559;28;20195;-75
2021/05/06 15:11:34;;;;;;;11.20;2.13;;;14.70;1.00;;;;;;4855555;28;20722;-75
2021/05/06 15:13:56;;;;;;;5.27;1.27;;;;;;;;;;4857335;28;20190;-77
2021/05/06 15:16:18;;;;;;;6.20;1.37;;;;;;;;;;4857411;28;20236;-83
2021/05/06 15:18:41;;;;;;;10.27;2.00;;;;;;;;;;4855277;28;20194;-76
2021/05/06 15:21:03;;;;;;;4.57;1.20;;;;;;;;;;4857206;28;20186;-80
2021/05/06 15:23:25;;;;;;;9.27;1.73;;;;;;;;;;4855238;28;20281;-78
2021/05/06 15:25:48;;;;;;;5.60;1.30;;;14.70;99.90;;;;;;4861454;28;20256;-78